createdAt,value
2022-09-15T00:01:03.615Z,1.25
2022-09-15T00:03:30.765Z,1.40
2022-09-15T00:05:58.172Z,1.55
2022-09-15T00:08:25.742Z,1.45
2022-09-15T00:10:57.373Z,1.20
2022-09-15T00:13:24.561Z,1.17
2022-09-15T00:15:51.964Z,1.30
2022-09-15T00:18:19.072Z,1.55
2022-09-15T00:20:46.544Z,1.25
2022-09-15T00:23:14.621Z,1.40
2022-09-15T00:25:44.224Z,1.17
2022-09-15T00:28:11.598Z,1.13
2022-09-15T00:30:42.844Z,1.23
2022-09-15T00:33:10.069Z,1.00
2022-09-15T00:35:48.951Z,1.40
2022-09-15T00:38:16.639Z,1.20
2022-09-15T00:40:47.826Z,1.50
2022-09-15T00:43:16.004Z,1.65
2022-09-15T00:45:43.216Z,1.45
2022-09-15T00:48:13.871Z,1.40
2022-09-15T00:50:42.564Z,1.30
2022-09-15T00:53:13.574Z,1.33
2022-09-15T00:55:47.484Z,1.23
2022-09-15T00:58:37.926Z,1.30
2022-09-15T01:01:08.127Z,1.30
2022-09-15T01:03:36.055Z,1.58
2022-09-15T01:06:06.982Z,1.48
2022-09-15T01:08:46.553Z,1.20
2022-09-15T01:11:16.973Z,1.50
2022-09-15T01:13:44.631Z,1.20
2022-09-15T01:16:14.621Z,1.38
2022-09-15T01:18:47.566Z,1.17
2022-09-15T01:21:33.377Z,1.25
2022-09-15T01:24:20.582Z,1.40
2022-09-15T01:29:29.769Z,1.20
2022-09-15T01:32:24.882Z,1.20
2022-09-15T01:34:59.048Z,1.33
2022-09-15T01:37:30.154Z,1.40
2022-09-15T01:39:58.527Z,1.67
2022-09-15T01:42:26.317Z,1.50
2022-09-15T01:44:57.877Z,1.35
2022-09-15T01:47:26.141Z,1.30
2022-09-15T01:49:55.790Z,1.30
2022-09-15T01:52:23.875Z,1.30
2022-09-15T01:54:59.584Z,1.58
2022-09-15T01:57:27.736Z,1.35
2022-09-15T01:59:55.842Z,1.42
2022-09-15T02:02:45.999Z,1.33
2022-09-15T02:05:16.601Z,1.27
2022-09-15T02:08:05.191Z,1.25
2022-09-15T02:10:47.553Z,1.20
2022-09-15T02:13:18.391Z,1.08
2022-09-15T02:15:52.814Z,1.20
2022-09-15T02:18:29.335Z,1.48
2022-09-15T02:20:59.394Z,1.08
2022-09-15T02:23:33.692Z,1.45
2022-09-15T02:26:05.527Z,1.40
2022-09-15T02:28:34.602Z,1.20
2022-09-15T02:31:03.725Z,1.17
2022-09-15T02:33:33.748Z,1.30
2022-09-15T02:36:00.895Z,1.70
2022-09-15T02:38:30.084Z,1.58
2022-09-15T02:40:57.502Z,1.60
2022-09-15T02:43:24.695Z,1.40
2022-09-15T02:45:51.894Z,1.20
2022-09-15T02:48:19.063Z,1.33
2022-09-15T02:50:46.349Z,1.20
2022-09-15T02:53:13.642Z,1.27
2022-09-15T02:55:41.893Z,1.23
2022-09-15T02:58:08.971Z,1.35
2022-09-15T03:00:38.592Z,1.30
2022-09-15T03:03:05.851Z,1.13
2022-09-15T03:05:32.902Z,1.45
2022-09-15T03:08:00.052Z,1.63
2022-09-15T03:10:27.263Z,1.50
2022-09-15T03:12:54.974Z,1.20
2022-09-15T03:15:24.083Z,0.95
2022-09-15T03:17:51.367Z,1.58
2022-09-15T03:20:20.262Z,1.35
2022-09-15T03:22:47.723Z,1.38
2022-09-15T03:25:14.871Z,1.17
2022-09-15T03:27:42.510Z,1.30
2022-09-15T03:30:10.120Z,1.40
2022-09-15T03:32:40.134Z,1.30
2022-09-15T03:35:11.969Z,1.40
2022-09-15T03:37:39.107Z,1.60
2022-09-15T03:40:06.717Z,1.48
2022-09-15T03:42:33.826Z,1.30
2022-09-15T03:45:00.883Z,1.58
2022-09-15T03:47:28.084Z,1.42
2022-09-15T03:49:55.298Z,1.35
2022-09-15T03:52:22.504Z,1.23
2022-09-15T03:54:49.872Z,1.40
2022-09-15T03:57:16.986Z,2.80
2022-09-15T03:59:44.102Z,1.70
2022-09-15T04:02:11.330Z,1.50
2022-09-15T04:04:38.487Z,1.58
2022-09-15T04:07:05.619Z,1.25
2022-09-15T04:09:32.784Z,1.20
2022-09-15T04:11:59.829Z,1.10
2022-09-15T04:14:26.879Z,1.20
2022-09-15T04:16:53.943Z,1.30
2022-09-15T04:19:21.062Z,1.60
2022-09-15T04:21:48.155Z,1.70
2022-09-15T04:24:17.184Z,1.80
2022-09-15T04:26:45.183Z,1.85
2022-09-15T04:29:13.893Z,1.63
2022-09-15T04:31:41.471Z,1.45
2022-09-15T04:34:09.608Z,2.00
2022-09-15T04:36:36.736Z,1.48
2022-09-15T04:39:04.217Z,1.70
2022-09-15T04:41:31.455Z,1.42
2022-09-15T04:43:58.572Z,1.40
2022-09-15T04:46:26.147Z,1.65
2022-09-15T04:48:53.982Z,1.55
2022-09-15T04:51:22.449Z,1.77
2022-09-15T04:53:49.992Z,1.63
2022-09-15T04:56:18.215Z,1.85
2022-09-15T04:58:47.025Z,1.60
2022-09-15T05:03:42.397Z,1.70
2022-09-15T05:06:10.695Z,1.50
2022-09-15T05:08:40.303Z,1.60
2022-09-15T05:11:08.755Z,1.42
2022-09-15T05:13:36.476Z,1.38
2022-09-15T05:16:07.763Z,1.75
2022-09-15T05:18:35.384Z,1.80
2022-09-15T05:21:03.584Z,1.90
2022-09-15T05:23:31.066Z,1.42
2022-09-15T05:25:58.749Z,1.60
2022-09-15T05:28:26.157Z,1.83
2022-09-15T05:30:54.306Z,1.52
2022-09-15T05:33:22.693Z,1.67
2022-09-15T05:36:02.510Z,1.60
2022-09-15T05:38:31.435Z,1.30
2022-09-15T05:41:04.600Z,1.30
2022-09-15T05:43:32.755Z,1.65
2022-09-15T05:46:00.130Z,1.50
2022-09-15T05:48:27.309Z,3.22
2022-09-15T05:50:55.267Z,1.67
2022-09-15T05:53:23.671Z,1.50
2022-09-15T05:55:55.356Z,1.70
2022-09-15T05:58:23.397Z,1.65
2022-09-15T06:00:51.108Z,1.30
2022-09-15T06:03:18.345Z,1.40
2022-09-15T06:05:45.567Z,1.75
2022-09-15T06:08:12.811Z,1.48
2022-09-15T06:10:40.219Z,1.70
2022-09-15T06:13:07.611Z,1.65
2022-09-15T06:15:34.797Z,1.45
2022-09-15T06:18:02.720Z,1.40
2022-09-15T06:20:29.980Z,1.58
2022-09-15T06:22:59.813Z,1.60
2022-09-15T06:25:27.032Z,1.50
2022-09-15T06:27:54.828Z,1.65
2022-09-15T06:30:21.894Z,1.42
2022-09-15T06:32:49.539Z,1.35
2022-09-15T06:35:17.636Z,1.27
2022-09-15T06:37:44.698Z,1.52
2022-09-15T06:40:12.079Z,1.75
2022-09-15T06:42:39.187Z,1.30
2022-09-15T06:45:06.847Z,1.80
2022-09-15T06:47:34.199Z,1.50
2022-09-15T06:50:01.626Z,1.20
2022-09-15T06:52:28.961Z,1.80
2022-09-15T06:54:56.047Z,1.52
2022-09-15T06:57:23.137Z,1.60
2022-09-15T06:59:50.190Z,1.40
2022-09-15T07:02:17.363Z,1.40
2022-09-15T07:04:44.518Z,1.40
2022-09-15T07:07:11.656Z,1.70
2022-09-15T07:09:41.139Z,1.70
2022-09-15T07:12:08.746Z,1.92
2022-09-15T07:14:35.879Z,1.70
2022-09-15T07:17:02.950Z,1.50
2022-09-15T07:19:30.071Z,1.63
2022-09-15T07:21:57.165Z,1.42
2022-09-15T07:24:24.325Z,1.60
2022-09-15T07:26:52.091Z,1.63
2022-09-15T07:29:19.219Z,2.20
2022-09-15T07:31:46.360Z,1.60
2022-09-15T07:34:13.502Z,1.38
2022-09-15T07:36:40.736Z,1.70
2022-09-15T07:39:07.811Z,1.67
2022-09-15T07:41:35.163Z,1.98
2022-09-15T07:44:02.455Z,2.92
2022-09-15T07:46:31.412Z,3.20
2022-09-15T07:48:58.567Z,4.00
2022-09-15T07:51:25.943Z,3.72
2022-09-15T07:53:53.997Z,3.42
2022-09-15T07:56:21.631Z,3.60
2022-09-15T07:58:49.323Z,3.45
2022-09-15T08:01:17.289Z,3.38
2022-09-15T08:03:46.332Z,2.90
2022-09-15T08:06:13.978Z,3.17
2022-09-15T08:08:41.444Z,2.92
2022-09-15T08:11:17.655Z,3.03
2022-09-15T08:13:46.318Z,3.08
2022-09-15T08:16:18.081Z,2.75
2022-09-15T08:18:45.625Z,2.78
2022-09-15T08:21:14.398Z,2.78
2022-09-15T08:23:41.822Z,2.63
2022-09-15T08:26:13.861Z,2.40
2022-09-15T08:28:41.909Z,1.98
2022-09-15T08:31:10.016Z,2.80
2022-09-15T08:33:38.961Z,2.40
2022-09-15T08:36:12.814Z,2.50
2022-09-15T08:38:40.922Z,2.42
2022-09-15T08:41:24.938Z,2.30
2022-09-15T08:43:58.384Z,2.13
2022-09-15T08:46:30.958Z,2.10
2022-09-15T08:49:07.060Z,2.00
2022-09-15T08:51:44.050Z,2.13
2022-09-15T08:54:14.756Z,2.10
2022-09-15T08:56:42.435Z,2.10
2022-09-15T08:59:13.020Z,2.20
2022-09-15T09:02:04.004Z,2.20
2022-09-15T09:04:40.093Z,1.75
2022-09-15T09:07:36.372Z,2.08
2022-09-15T09:10:03.426Z,2.00
2022-09-15T09:12:41.635Z,1.75
2022-09-15T09:15:16.889Z,2.25
2022-09-15T09:17:52.705Z,1.90
2022-09-15T09:20:29.466Z,2.03
2022-09-15T09:22:58.696Z,2.20
2022-09-15T09:25:27.985Z,1.60
2022-09-15T09:27:58.057Z,1.77
2022-09-15T09:30:25.814Z,1.30
2022-09-15T09:33:11.347Z,1.70
2022-09-15T09:35:46.301Z,1.35
2022-09-15T09:40:41.423Z,1.60
2022-09-15T09:43:09.151Z,1.40
2022-09-15T09:45:36.288Z,1.38
2022-09-15T09:48:07.062Z,1.33
2022-09-15T09:50:34.866Z,1.88
2022-09-15T09:53:18.174Z,1.40
2022-09-15T09:55:45.933Z,1.35
2022-09-15T09:58:15.926Z,1.40
2022-09-15T10:00:43.082Z,1.40
2022-09-15T10:03:33.007Z,1.30
2022-09-15T10:06:02.242Z,1.23
2022-09-15T10:08:29.554Z,1.10
2022-09-15T10:11:01.167Z,1.13
2022-09-15T10:13:28.317Z,1.20
2022-09-15T10:15:57.564Z,1.25
2022-09-15T10:18:34.983Z,1.10
2022-09-15T10:21:04.042Z,1.35
2022-09-15T10:23:32.113Z,1.05
2022-09-15T10:26:18.071Z,1.00
2022-09-15T10:28:45.449Z,1.30
2022-09-15T10:31:14.079Z,1.15
2022-09-15T10:33:42.627Z,1.42
2022-09-15T10:36:13.916Z,1.27
2022-09-15T10:38:40.987Z,0.90
2022-09-15T10:41:26.604Z,1.00
2022-09-15T10:43:56.743Z,1.30
2022-09-15T10:46:26.620Z,1.40
2022-09-15T10:49:05.983Z,1.02
2022-09-15T10:51:39.206Z,0.93
2022-09-15T10:54:09.139Z,1.10
2022-09-15T10:56:39.201Z,0.80
2022-09-15T10:59:27.240Z,1.00
2022-09-15T11:02:13.302Z,1.10
2022-09-15T11:04:47.012Z,1.00
2022-09-15T11:07:27.089Z,1.05
2022-09-15T11:10:11.912Z,1.10
2022-09-15T11:12:39.258Z,1.00
2022-09-15T11:15:06.351Z,1.02
2022-09-15T11:17:44.556Z,0.95
2022-09-15T11:20:23.947Z,0.90
2022-09-15T11:22:54.789Z,0.80
2022-09-15T11:25:23.697Z,1.02
2022-09-15T11:28:07.355Z,1.05
2022-09-15T11:30:47.908Z,0.90
2022-09-15T11:33:25.365Z,0.90
2022-09-15T11:36:01.577Z,0.80
2022-09-15T11:38:34.492Z,0.80
2022-09-15T11:41:13.494Z,0.80
2022-09-15T11:43:46.092Z,1.00
2022-09-15T11:46:19.959Z,0.88
2022-09-15T11:49:07.876Z,0.80
2022-09-15T11:51:39.127Z,0.90
2022-09-15T11:54:31.537Z,0.80
2022-09-15T11:56:59.510Z,0.80
2022-09-15T11:59:35.161Z,0.93
2022-09-15T12:02:22.630Z,0.95
2022-09-15T12:05:08.245Z,0.60
2022-09-15T12:07:42.186Z,1.00
2022-09-15T12:10:18.690Z,1.17
2022-09-15T12:12:46.422Z,1.02
2022-09-15T12:15:18.056Z,1.20
2022-09-15T12:18:06.673Z,0.85
2022-09-15T12:20:51.923Z,1.00
2022-09-15T12:23:22.902Z,0.80
2022-09-15T12:26:00.900Z,0.80
2022-09-15T12:28:38.627Z,1.10
2022-09-15T12:31:16.034Z,0.90
2022-09-15T12:33:43.097Z,0.82
2022-09-15T12:36:28.814Z,0.70
2022-09-15T12:38:56.135Z,0.68
2022-09-15T12:41:23.273Z,1.13
2022-09-15T12:43:57.725Z,0.80
2022-09-15T12:46:25.136Z,0.77
2022-09-15T12:48:53.459Z,0.80
2022-09-15T12:51:25.715Z,0.95
2022-09-15T12:53:58.261Z,1.00
2022-09-15T12:56:31.051Z,0.90
2022-09-15T12:59:06.528Z,0.90
2022-09-15T13:01:47.091Z,0.90
2022-09-15T13:04:25.109Z,0.80
2022-09-15T13:07:15.354Z,1.42
2022-09-15T13:09:59.249Z,1.48
2022-09-15T13:12:31.978Z,0.90
2022-09-15T13:15:02.418Z,0.95
2022-09-15T13:17:29.695Z,0.90
2022-09-15T13:20:00.923Z,0.50
2022-09-15T13:22:31.330Z,0.98
2022-09-15T13:25:02.126Z,0.70
2022-09-15T13:27:37.290Z,0.68
2022-09-15T13:30:19.533Z,1.10
2022-09-15T13:33:05.120Z,1.15
2022-09-15T13:35:44.688Z,0.70
2022-09-15T13:38:25.018Z,0.77
2022-09-15T13:41:13.629Z,0.70
2022-09-15T13:43:41.279Z,1.05
2022-09-15T13:46:25.681Z,0.75
2022-09-15T13:49:03.351Z,0.90
2022-09-15T13:51:32.098Z,0.73
2022-09-15T13:56:27.974Z,0.80
2022-09-15T13:59:03.077Z,0.80
2022-09-15T14:01:34.410Z,0.68
2022-09-15T14:04:07.984Z,0.80
2022-09-15T14:06:37.426Z,0.95
2022-09-15T14:09:08.864Z,0.88
2022-09-15T14:11:37.185Z,1.05
2022-09-15T14:14:07.059Z,0.82
2022-09-15T14:16:35.706Z,1.30
2022-09-15T14:19:05.006Z,0.80
2022-09-15T14:21:33.107Z,0.95
2022-09-15T14:24:05.027Z,1.17
2022-09-15T14:26:34.369Z,0.70
2022-09-15T14:29:05.897Z,0.80
2022-09-15T14:31:34.767Z,1.02
2022-09-15T14:34:03.046Z,0.80
2022-09-15T14:36:32.019Z,0.90
2022-09-15T14:39:17.873Z,0.80
2022-09-15T14:41:45.544Z,1.05
2022-09-15T14:47:21.213Z,0.80
2022-09-15T14:49:48.726Z,1.00
2022-09-15T14:52:30.308Z,1.00
2022-09-15T14:55:00.705Z,0.70
2022-09-15T14:57:31.309Z,1.27
2022-09-15T15:00:01.287Z,1.27
2022-09-15T15:02:34.465Z,1.00
2022-09-15T15:05:16.327Z,0.80
2022-09-15T15:07:43.562Z,1.10
2022-09-15T15:10:13.658Z,0.90
2022-09-15T15:12:42.810Z,0.80
2022-09-15T15:15:14.262Z,0.95
2022-09-15T15:17:44.116Z,1.10
2022-09-15T15:20:11.252Z,0.90
2022-09-15T15:22:39.266Z,1.10
2022-09-15T15:25:27.579Z,1.00
2022-09-15T15:27:56.036Z,1.00
2022-09-15T15:30:32.150Z,0.77
2022-09-15T15:33:00.725Z,0.80
2022-09-15T15:35:28.533Z,0.80
2022-09-15T15:38:25.375Z,0.80
2022-09-15T15:41:00.239Z,1.10
2022-09-15T15:46:06.678Z,0.80
2022-09-15T15:48:37.942Z,1.38
2022-09-15T15:51:06.458Z,0.95
2022-09-15T15:53:34.376Z,0.95
2022-09-15T15:56:01.522Z,0.85
2022-09-15T15:58:28.741Z,0.77
2022-09-15T16:00:56.919Z,0.90
2022-09-15T16:03:24.965Z,0.80
2022-09-15T16:05:53.615Z,1.00
2022-09-15T16:08:25.834Z,0.80
2022-09-15T16:10:54.111Z,1.40
2022-09-15T16:13:21.559Z,2.05
2022-09-15T16:15:49.248Z,2.78
2022-09-15T16:18:16.779Z,3.35
2022-09-15T16:20:44.286Z,4.32
2022-09-15T16:23:15.809Z,6.35
2022-09-15T16:25:54.340Z,6.35
2022-09-15T16:28:21.417Z,6.85
2022-09-15T16:30:49.002Z,6.38
2022-09-15T16:33:16.879Z,6.40
2022-09-15T16:35:49.418Z,6.35
2022-09-15T16:38:16.549Z,4.50
2022-09-15T16:40:43.710Z,4.53
2022-09-15T16:43:13.746Z,3.47
2022-09-15T16:45:41.223Z,3.97
2022-09-15T16:48:08.697Z,4.15
2022-09-15T16:50:37.765Z,3.05
2022-09-15T16:53:07.187Z,2.70
2022-09-15T16:55:39.657Z,1.83
2022-09-15T16:58:07.053Z,2.30
2022-09-15T17:00:35.933Z,1.63
2022-09-15T17:03:03.468Z,2.15
2022-09-15T17:05:38.565Z,1.50
2022-09-15T17:08:06.445Z,1.40
2022-09-15T17:10:34.203Z,1.25
2022-09-15T17:13:01.695Z,1.55
2022-09-15T17:15:30.437Z,1.40
2022-09-15T17:20:25.293Z,1.40
2022-09-15T17:22:52.893Z,1.55
2022-09-15T17:25:29.128Z,1.20
2022-09-15T17:27:56.882Z,1.00
2022-09-15T17:30:25.725Z,1.17
2022-09-15T17:35:24.621Z,1.23
2022-09-15T17:37:52.363Z,1.40
2022-09-15T17:40:20.577Z,1.00
2022-09-15T17:42:49.074Z,0.98
2022-09-15T17:45:21.461Z,0.93
2022-09-15T17:47:48.610Z,1.23
2022-09-15T17:50:16.600Z,1.50
2022-09-15T17:52:43.988Z,1.75
2022-09-15T17:55:17.211Z,1.00
2022-09-15T17:57:44.375Z,1.15
2022-09-15T18:00:12.729Z,0.95
2022-09-15T18:02:44.058Z,1.23
2022-09-15T18:05:18.093Z,1.05
2022-09-15T18:07:45.194Z,1.08
2022-09-15T18:10:12.792Z,1.42
2022-09-15T18:12:41.806Z,1.58
2022-09-15T18:15:15.801Z,1.40
2022-09-15T18:17:43.600Z,1.45
2022-09-15T18:20:12.878Z,1.45
2022-09-15T18:22:41.286Z,1.42
2022-09-15T18:25:13.083Z,1.20
2022-09-15T18:27:40.258Z,1.02
2022-09-15T18:30:07.636Z,1.00
2022-09-15T18:32:34.782Z,1.42
2022-09-15T18:35:03.280Z,1.00
2022-09-15T18:37:30.427Z,1.00
2022-09-15T18:39:57.714Z,1.23
2022-09-15T18:42:27.245Z,1.10
2022-09-15T18:44:56.911Z,0.88
2022-09-15T18:47:24.065Z,1.20
2022-09-15T18:49:51.142Z,1.40
2022-09-15T18:52:18.374Z,1.00
2022-09-15T18:54:45.448Z,1.20
2022-09-15T18:57:12.539Z,0.70
2022-09-15T18:59:40.030Z,0.80
2022-09-15T19:02:07.548Z,1.10
2022-09-15T19:04:39.915Z,0.80
2022-09-15T19:07:08.118Z,1.17
2022-09-15T19:09:35.841Z,1.20
2022-09-15T19:12:03.265Z,0.82
2022-09-15T19:14:30.707Z,0.88
2022-09-15T19:16:58.712Z,1.10
2022-09-15T19:19:25.874Z,0.90
2022-09-15T19:21:52.949Z,0.77
2022-09-15T19:24:20.178Z,1.02
2022-09-15T19:26:47.276Z,0.90
2022-09-15T19:29:15.519Z,0.80
2022-09-15T19:31:42.855Z,1.10
2022-09-15T19:34:10.393Z,1.17
2022-09-15T19:36:37.558Z,0.75
2022-09-15T19:39:04.705Z,1.00
2022-09-15T19:41:32.139Z,0.90
2022-09-15T19:44:01.161Z,1.13
2022-09-15T19:46:28.314Z,1.20
2022-09-15T19:48:55.667Z,1.10
2022-09-15T19:51:23.053Z,0.85
2022-09-15T19:53:50.995Z,0.90
2022-09-15T19:56:35.490Z,0.80
2022-09-15T19:59:04.238Z,1.38
2022-09-15T20:01:34.645Z,1.20
2022-09-15T20:04:02.150Z,0.90
2022-09-15T20:09:00.024Z,0.70
2022-09-15T20:11:28.282Z,0.77
2022-09-15T20:13:55.945Z,0.85
2022-09-15T20:16:24.232Z,1.58
2022-09-15T20:18:52.452Z,0.90
2022-09-15T20:21:27.123Z,0.90
2022-09-15T20:24:00.380Z,0.90
2022-09-15T20:26:27.644Z,3.33
2022-09-15T20:28:54.868Z,1.25
2022-09-15T20:31:23.579Z,1.00
2022-09-15T20:33:51.289Z,0.88
2022-09-15T20:36:20.110Z,1.42
2022-09-15T20:41:15.203Z,0.90
2022-09-15T20:43:42.998Z,0.98
2022-09-15T20:46:12.404Z,0.77
2022-09-15T20:48:39.683Z,1.25
2022-09-15T20:51:06.894Z,0.70
2022-09-15T20:53:34.568Z,1.30
2022-09-15T20:56:02.184Z,0.70
2022-09-15T20:58:29.379Z,0.63
2022-09-15T21:01:03.963Z,0.70
2022-09-15T21:03:31.299Z,0.80
2022-09-15T21:06:02.195Z,0.73
2022-09-15T21:08:29.950Z,0.80
2022-09-15T21:10:58.956Z,0.60
2022-09-15T21:13:28.941Z,0.70
2022-09-15T21:15:59.558Z,0.70
2022-09-15T21:18:27.672Z,0.90
2022-09-15T21:20:58.804Z,0.70
2022-09-15T21:23:26.418Z,0.77
2022-09-15T21:26:01.673Z,1.20
2022-09-15T21:28:29.370Z,1.45
2022-09-15T21:31:06.912Z,1.40
2022-09-15T21:33:34.695Z,1.50
2022-09-15T21:36:12.226Z,1.30
2022-09-15T21:38:40.569Z,1.20
2022-09-15T21:41:09.395Z,1.20
2022-09-15T21:46:05.081Z,1.02
2022-09-15T21:48:32.760Z,1.17
2022-09-15T21:51:00.399Z,0.95
2022-09-15T21:53:27.994Z,1.10
2022-09-15T21:55:56.598Z,0.90
2022-09-15T21:58:26.193Z,1.25
2022-09-15T22:00:53.876Z,1.15
2022-09-15T22:03:20.964Z,0.80
2022-09-15T22:05:48.248Z,1.17
2022-09-15T22:08:16.595Z,0.90
2022-09-15T22:10:44.619Z,1.05
2022-09-15T22:13:12.196Z,0.98
2022-09-15T22:15:39.424Z,0.93
2022-09-15T22:18:07.439Z,0.80
2022-09-15T22:20:34.925Z,0.85
2022-09-15T22:23:02.297Z,0.90
2022-09-15T22:25:29.452Z,1.17
2022-09-15T22:27:56.609Z,0.82
2022-09-15T22:30:23.811Z,0.70
2022-09-15T22:32:50.915Z,0.75
2022-09-15T22:35:18.082Z,0.60
2022-09-15T22:37:45.535Z,1.00
2022-09-15T22:40:12.680Z,0.90
2022-09-15T22:42:39.869Z,1.00
2022-09-15T22:45:07.469Z,0.90
2022-09-15T22:47:34.576Z,1.00
2022-09-15T22:50:01.729Z,0.80
2022-09-15T22:52:28.885Z,0.60
2022-09-15T22:54:56.023Z,1.10
2022-09-15T22:57:23.157Z,0.80
2022-09-15T22:59:50.319Z,1.02
2022-09-15T23:02:17.449Z,0.73
2022-09-15T23:04:44.539Z,1.10
2022-09-15T23:07:11.731Z,0.80
2022-09-15T23:09:38.923Z,0.90
2022-09-15T23:12:07.891Z,0.60
2022-09-15T23:14:34.966Z,1.02
2022-09-15T23:17:02.118Z,1.00
2022-09-15T23:19:29.261Z,0.90
2022-09-15T23:21:56.372Z,1.00
2022-09-15T23:24:23.952Z,0.65
2022-09-15T23:26:51.085Z,0.95
2022-09-15T23:29:18.684Z,0.98
2022-09-15T23:31:45.818Z,0.70
2022-09-15T23:34:12.970Z,1.10
2022-09-15T23:36:40.062Z,0.80
2022-09-15T23:39:07.160Z,0.75
2022-09-15T23:41:34.555Z,0.80
2022-09-15T23:44:01.686Z,0.80
2022-09-15T23:46:28.803Z,0.98
2022-09-15T23:48:55.942Z,0.88
2022-09-15T23:51:23.115Z,0.80
2022-09-15T23:53:50.389Z,1.20
2022-09-15T23:56:17.460Z,1.10
2022-09-15T23:58:44.540Z,0.70
